Pagrindinis puslapis
METAR-TAF:

METAR-TAF

Oro uostai :

Aleksandrija-Borg El Arab, Egiptas

platuma: 31-31N, ilguma: 030-10E, Aukštis: 54 m

Dabartinis oras

Ataskaita buvo paskelbta 2 valandos ir 38 minutes, ne 17:00 UTC
Vėjas 6 kt iš Šiaurės/Šiaurės Vakarų
Temperatūra 21°C
Drėgmė 64%
Slėgis 1021 hPa
Matomumas 10 km arba daugiau
Išsisklaidę debesys ne aukštis 2000 ft

METAR: HEBA 221700Z 34006KT 9999 SCT020 21/14 Q1021 NOSIG

Laikas: 21:38 (19:38 UTC)

Prognozė

Ataskaita buvo paskelbta 2 valandos ir 38 minutes, ne 17:00 UTC
Prognozė galioja nuo 22 metu 18 UTC su 23 metu 24 UTC
Vėjas 8 kt iš Šiaurės
Matomumas 10 km arba daugiau
Išsisklaidę debesys ne aukštis 2000 ft

TAF: HEBA 221700Z 2218/2324 36008KT 9999 SCT020

Orai ataskaitas ir orų prognozės (METAR, TAF).

turimą stotys yra geltonos ir raudonos taškus žemėlapyje.

Perkelti pele per norėdami pamatyti stoties vardą.

Tada spustelėkite, norėdami matyti oro stebėjimo ir prognozės.

Norėdami pakeisti žemėlapį: spustelėkite ant žalios mygtukų su juodo kryžiaus žemyn,; žalią mygtuką su brūkšneliu, jei norite nutolinti; arba žalių rodyklių gretimoms žemėlapius.


METAR-TAF: